N02427 LOWS-LOWI
Flight info
| Callsign | N02427 |
|---|---|
| Flight time | N/A |
| Altitude | 12000 |
| Route | EDJG DCT ZUREX DCT LOIK DCT RTT |
| Aircraft | DA62/L-SDFGRY/C |
Departure
| Time | 2026-05-08 07:58 |
|---|---|
| Airport | Salzburg Airport (LOWS) |
Arrival
| Time | N/A |
|---|---|
| Airport | Innsbruck Airport (LOWI) |
| Time | Latitude | Longitude | Altitude | Speed | Heading |
|---|---|---|---|---|---|
| 2026-05-08 07:29 | 47.79538 | 12.99807 | 1417 ft | 0 kts | 337° |
| 2026-05-08 07:50 | 47.79549 | 12.99800 | 1417 ft | 7 kts | 337° |
| 2026-05-08 07:50 | 47.79594 | 12.99824 | 1417 ft | 8 kts | 88° |
| 2026-05-08 07:50 | 47.79555 | 12.99869 | 1417 ft | 7 kts | 130° |
| 2026-05-08 07:50 | 47.79563 | 12.99948 | 1417 ft | 9 kts | 78° |
| 2026-05-08 07:51 | 47.79520 | 13.00011 | 1418 ft | 11 kts | 155° |
| 2026-05-08 07:51 | 47.79441 | 13.00063 | 1417 ft | 14 kts | 157° |
| 2026-05-08 07:51 | 47.79344 | 13.00121 | 1417 ft | 16 kts | 158° |
| 2026-05-08 07:51 | 47.79235 | 13.00188 | 1416 ft | 18 kts | 158° |
| 2026-05-08 07:52 | 47.79115 | 13.00266 | 1415 ft | 19 kts | 158° |
| 2026-05-08 07:52 | 47.78985 | 13.00341 | 1415 ft | 20 kts | 159° |
| 2026-05-08 07:52 | 47.78857 | 13.00416 | 1415 ft | 20 kts | 156° |
| 2026-05-08 07:52 | 47.78731 | 13.00509 | 1415 ft | 20 kts | 155° |
| 2026-05-08 07:53 | 47.78605 | 13.00586 | 1416 ft | 18 kts | 159° |
| 2026-05-08 07:53 | 47.78529 | 13.00691 | 1415 ft | 14 kts | 93° |
| 2026-05-08 07:53 | 47.78550 | 13.00790 | 1416 ft | 7 kts | 65° |
| 2026-05-08 07:53 | 47.78554 | 13.00803 | 1416 ft | 0 kts | 65° |
| 2026-05-08 07:54 | 47.78559 | 13.00818 | 1415 ft | 6 kts | 63° |
| 2026-05-08 07:54 | 47.78603 | 13.00851 | 1413 ft | 8 kts | 348° |
| 2026-05-08 07:55 | 47.78659 | 13.00820 | 1414 ft | 16 kts | 336° |
| 2026-05-08 07:55 | 47.78902 | 13.00665 | 1414 ft | 58 kts | 336° |
| 2026-05-08 07:55 | 47.79342 | 13.00385 | 1418 ft | 77 kts | 337° |
| 2026-05-08 07:55 | 47.79872 | 13.00056 | 1439 ft | 87 kts | 337° |
| 2026-05-08 07:56 | 47.80431 | 12.99719 | 1541 ft | 85 kts | 335° |
| 2026-05-08 07:56 | 47.80978 | 12.99358 | 1619 ft | 86 kts | 332° |
| 2026-05-08 07:56 | 47.81506 | 12.98884 | 1621 ft | 97 kts | 327° |
| 2026-05-08 07:56 | 47.82091 | 12.98334 | 1670 ft | 98 kts | 327° |
| 2026-05-08 07:57 | 47.82666 | 12.97800 | 1752 ft | 97 kts | 327° |
| 2026-05-08 07:57 | 47.83228 | 12.97278 | 1829 ft | 96 kts | 327° |
| 2026-05-08 07:57 | 47.83796 | 12.96752 | 1910 ft | 96 kts | 327° |
| 2026-05-08 07:57 | 47.84267 | 12.96078 | 1971 ft | 97 kts | 287° |
| 2026-05-08 07:58 | 47.84324 | 12.95086 | 2054 ft | 98 kts | 271° |
| 2026-05-08 07:58 | 47.84348 | 12.94046 | 2112 ft | 102 kts | 271° |
| 2026-05-08 07:58 | 47.84373 | 12.92979 | 2191 ft | 104 kts | 272° |
| 2026-05-08 07:58 | 47.84399 | 12.91896 | 2274 ft | 105 kts | 272° |
| 2026-05-08 07:59 | 47.84427 | 12.90808 | 2358 ft | 106 kts | 272° |
| 2026-05-08 07:59 | 47.84454 | 12.89728 | 2456 ft | 106 kts | 272° |
| 2026-05-08 07:59 | 47.84482 | 12.88630 | 2546 ft | 106 kts | 272° |
| 2026-05-08 07:59 | 47.84512 | 12.87530 | 2658 ft | 106 kts | 271° |
| 2026-05-08 08:00 | 47.84539 | 12.86430 | 2758 ft | 106 kts | 272° |
| 2026-05-08 08:00 | 47.84567 | 12.85328 | 2851 ft | 107 kts | 272° |
| 2026-05-08 08:00 | 47.84596 | 12.84221 | 2990 ft | 107 kts | 272° |
| 2026-05-08 08:00 | 47.84622 | 12.83118 | 3102 ft | 107 kts | 272° |
| 2026-05-08 08:01 | 47.84651 | 12.82006 | 3231 ft | 108 kts | 272° |
| 2026-05-08 08:01 | 47.84679 | 12.80894 | 3365 ft | 108 kts | 272° |
| 2026-05-08 08:01 | 47.84707 | 12.79795 | 3461 ft | 108 kts | 272° |
| 2026-05-08 08:01 | 47.84734 | 12.78682 | 3541 ft | 108 kts | 272° |
| 2026-05-08 08:02 | 47.84763 | 12.77565 | 3626 ft | 108 kts | 272° |
| 2026-05-08 08:02 | 47.84790 | 12.76445 | 3723 ft | 108 kts | 272° |
| 2026-05-08 08:02 | 47.84818 | 12.75325 | 3807 ft | 108 kts | 272° |
| 2026-05-08 08:02 | 47.84847 | 12.74204 | 3898 ft | 109 kts | 272° |
| 2026-05-08 08:03 | 47.84872 | 12.73082 | 4028 ft | 109 kts | 272° |
| 2026-05-08 08:03 | 47.84901 | 12.71970 | 4140 ft | 109 kts | 272° |
| 2026-05-08 08:03 | 47.84928 | 12.70843 | 4230 ft | 109 kts | 272° |
| 2026-05-08 08:03 | 47.84955 | 12.69718 | 4319 ft | 109 kts | 272° |
| 2026-05-08 08:04 | 47.84982 | 12.68587 | 4411 ft | 109 kts | 272° |
| 2026-05-08 08:04 | 47.85009 | 12.67456 | 4501 ft | 110 kts | 272° |
| 2026-05-08 08:04 | 47.85039 | 12.66350 | 4664 ft | 110 kts | 272° |
| 2026-05-08 08:04 | 47.85063 | 12.65196 | 4760 ft | 113 kts | 271° |
| 2026-05-08 08:05 | 47.85091 | 12.64021 | 4858 ft | 114 kts | 271° |
| 2026-05-08 08:05 | 47.85119 | 12.62837 | 4965 ft | 115 kts | 271° |
| 2026-05-08 08:05 | 47.85148 | 12.61648 | 5075 ft | 115 kts | 271° |
| 2026-05-08 08:05 | 47.85176 | 12.60459 | 5190 ft | 115 kts | 271° |
| 2026-05-08 08:06 | 47.85203 | 12.59285 | 5302 ft | 115 kts | 271° |
| 2026-05-08 08:06 | 47.85231 | 12.58098 | 5422 ft | 115 kts | 271° |
| 2026-05-08 08:06 | 47.85258 | 12.56911 | 5540 ft | 115 kts | 271° |
| 2026-05-08 08:06 | 47.85285 | 12.55731 | 5673 ft | 115 kts | 271° |
| 2026-05-08 08:07 | 47.85188 | 12.54565 | 5762 ft | 115 kts | 246° |
| 2026-05-08 08:07 | 47.84890 | 12.53468 | 5900 ft | 114 kts | 249° |
| 2026-05-08 08:07 | 47.84606 | 12.52367 | 6029 ft | 114 kts | 248° |
| 2026-05-08 08:07 | 47.84323 | 12.51271 | 6158 ft | 113 kts | 248° |
| 2026-05-08 08:08 | 47.84041 | 12.50179 | 6276 ft | 113 kts | 248° |
| 2026-05-08 08:08 | 47.83759 | 12.49089 | 6392 ft | 113 kts | 248° |
| 2026-05-08 08:08 | 47.83480 | 12.48013 | 6536 ft | 113 kts | 248° |
| 2026-05-08 08:08 | 47.83198 | 12.46925 | 6666 ft | 113 kts | 248° |
| 2026-05-08 08:09 | 47.82917 | 12.45841 | 6794 ft | 112 kts | 249° |
| 2026-05-08 08:09 | 47.82638 | 12.44764 | 6929 ft | 111 kts | 249° |
| 2026-05-08 08:09 | 47.82360 | 12.43691 | 7069 ft | 111 kts | 249° |
| 2026-05-08 08:09 | 47.82082 | 12.42622 | 7215 ft | 111 kts | 249° |
| 2026-05-08 08:10 | 47.81804 | 12.41551 | 7365 ft | 111 kts | 249° |
| 2026-05-08 08:10 | 47.81525 | 12.40477 | 7487 ft | 111 kts | 249° |
| 2026-05-08 08:10 | 47.81257 | 12.39448 | 7599 ft | 111 kts | 249° |
| 2026-05-08 08:10 | 47.80982 | 12.38391 | 7709 ft | 111 kts | 249° |
| 2026-05-08 08:11 | 47.80703 | 12.37316 | 7844 ft | 111 kts | 249° |
| 2026-05-08 08:11 | 47.80423 | 12.36241 | 7954 ft | 112 kts | 249° |
| 2026-05-08 08:11 | 47.80142 | 12.35162 | 8071 ft | 112 kts | 249° |
| 2026-05-08 08:11 | 47.79863 | 12.34088 | 8194 ft | 112 kts | 249° |
| 2026-05-08 08:12 | 47.79580 | 12.33006 | 8313 ft | 112 kts | 249° |
| 2026-05-08 08:12 | 47.79299 | 12.31927 | 8440 ft | 112 kts | 249° |
| 2026-05-08 08:12 | 47.79017 | 12.30849 | 8567 ft | 112 kts | 250° |
| 2026-05-08 08:12 | 47.78736 | 12.29771 | 8678 ft | 111 kts | 250° |
| 2026-05-08 08:13 | 47.78456 | 12.28696 | 8805 ft | 112 kts | 250° |
| 2026-05-08 08:13 | 47.78180 | 12.27638 | 8951 ft | 111 kts | 250° |
| 2026-05-08 08:13 | 47.77899 | 12.26566 | 9060 ft | 112 kts | 250° |
| 2026-05-08 08:13 | 47.77617 | 12.25486 | 9185 ft | 113 kts | 250° |
| 2026-05-08 08:14 | 47.77279 | 12.24428 | 9322 ft | 115 kts | 233° |
| 2026-05-08 08:14 | 47.76627 | 12.23733 | 9456 ft | 118 kts | 204° |
| 2026-05-08 08:14 | 47.76364 | 12.23596 | 9510 ft | 119 kts | 202° |